Time;durP1;ratioP1;P1;durP2;ratioP2;P2;SDS_P1;SDS_P2;PMS_P1;PMS_P2;Temp;Humidity;BMP_temperature;BMP_pressure;BME280_temperature;BME280_humidity;BME280_pressure;Samples;Min_cycle;Max_cycle;Signal;HPM_P1;HPM_P2
2022/07/13 00:00:39;;;;;;;5.50;0.98;;;;;;;26.67;43.32;101407.00;4933602;29;20062;-64
2022/07/13 00:03:24;;;;;;;3.13;0.80;;;;;;;26.65;43.84;101415.00;4936779;29;20074;-62
2022/07/13 00:06:09;;;;;;;3.22;0.65;;;;;;;26.73;43.37;101415.72;4933855;29;20055;-63
2022/07/13 00:08:54;;;;;;;4.97;0.90;;;;;;;26.75;43.57;101418.91;4933439;29;20502;-64
2022/07/13 00:11:39;;;;;;;3.80;1.13;;;;;;;26.56;43.54;101422.22;4934158;29;20039;-63
2022/07/13 00:14:24;;;;;;;10.95;1.45;;;;;;;26.60;43.61;101423.78;4935523;29;20426;-62
2022/07/13 00:17:09;;;;;;;2.35;1.30;;;;;;;26.65;43.34;101425.34;4933730;29;20040;-63
2022/07/13 00:19:54;;;;;;;6.00;1.00;;;;;;;26.68;43.00;101430.13;4933890;29;20059;-64
2022/07/13 00:22:39;;;;;;;1.85;1.08;;;;;;;26.46;43.41;101429.47;4933874;29;20051;-62
2022/07/13 00:25:24;;;;;;;2.55;1.25;;;;;;;26.44;43.90;101428.25;4933652;29;20066;-64
2022/07/13 00:28:09;;;;;;;2.45;1.00;;;;;;;26.55;43.96;101423.44;4937071;29;20396;-63
2022/07/13 00:30:54;;;;;;;4.65;1.92;;;;;;;26.63;43.81;101430.53;4935496;29;20062;-63
2022/07/13 00:33:39;;;;;;;3.40;1.13;;;;;;;26.49;43.81;101427.84;4927528;29;20128;-62
2022/07/13 00:36:25;;;;;;;4.93;1.27;;;;;;;26.30;44.45;101427.16;4932593;29;20298;-65
2022/07/13 00:39:10;;;;;;;6.60;1.40;;;;;;;25.86;45.05;101429.63;4933750;29;20356;-61
2022/07/13 00:41:55;;;;;;;4.43;1.35;;;;;;;25.51;45.73;101424.91;4933652;29;20415;-62
2022/07/13 00:44:39;;;;;;;4.63;1.00;;;;;;;25.27;46.46;101420.97;4937781;29;20046;-62
2022/07/13 00:47:32;;;;;;;2.20;1.10;;;;;;;25.51;45.91;101417.34;4936077;29;20051;-62
2022/07/13 00:50:17;;;;;;;5.30;1.08;;;;;;;25.27;46.40;101426.53;4931996;29;20051;-61
2022/07/13 00:53:02;;;;;;;3.33;1.48;;;;;;;24.70;48.15;101426.44;4933307;29;20070;-63
2022/07/13 00:55:48;;;;;;;1.85;1.13;;;;;;;24.97;47.79;101417.78;4927975;29;20510;-63
2022/07/13 00:58:33;;;;;;;3.92;1.30;;;;;;;25.19;46.94;101424.94;4933549;29;20124;-63
2022/07/13 01:01:18;;;;;;;2.63;1.08;;;;;;;25.54;46.45;101424.91;4934534;29;20116;-60
2022/07/13 01:04:03;;;;;;;4.10;0.77;;;;;;;25.78;46.04;101417.72;4939752;29;20051;-63
2022/07/13 01:06:48;;;;;;;3.70;1.10;;;;;;;25.97;46.34;101419.25;4936746;29;20081;-60
2022/07/13 01:09:34;;;;;;;4.50;1.52;;;;;;;26.08;46.05;101414.44;4936775;29;20051;-61
2022/07/13 01:12:19;;;;;;;4.78;1.05;;;;;;;26.16;45.37;101412.44;4952565;28;20046;-62
2022/07/13 01:15:06;;;;;;;4.95;1.00;;;;;;;26.24;45.59;101412.03;4937565;29;20055;-62
2022/07/13 01:17:51;;;;;;;2.35;1.02;;;;;;;26.30;45.52;101409.63;4931608;29;20046;-62
2022/07/13 01:20:36;;;;;;;2.17;0.70;;;;;;;26.34;45.32;101411.19;4936356;29;20055;-61
2022/07/13 01:23:21;;;;;;;3.85;1.15;;;;;;;26.28;44.77;101412.00;4936384;29;20106;-61
2022/07/13 01:26:07;;;;;;;8.98;1.20;;;;;;;26.09;45.04;101413.25;4936228;29;20110;-61
2022/07/13 01:28:52;;;;;;;3.55;1.23;;;;;;;26.03;45.25;101406.50;4936592;29;20055;-62
2022/07/13 01:31:39;;;;;;;2.22;1.05;;;;;;;26.02;45.59;101409.69;4937836;29;20064;-62
2022/07/13 01:34:24;;;;;;;3.08;0.90;;;;;;;26.10;45.46;101419.63;4936403;29;20066;-61
2022/07/13 01:37:09;;;;;;;3.60;1.05;;;;;;;25.88;45.91;101407.75;4936087;29;20522;-61
2022/07/13 01:39:54;;;;;;;3.63;1.10;;;;;;;25.87;45.68;101408.94;4936737;29;20515;-63
2022/07/13 01:42:45;;;;;;;0.90;0.73;;;;;;;25.98;45.80;101413.28;4936220;29;20054;-61
2022/07/13 01:45:30;;;;;;;3.60;1.17;;;;;;;26.11;45.72;101410.84;4936401;29;20047;-62
2022/07/13 01:48:15;;;;;;;5.15;0.95;;;;;;;26.10;46.03;101408.47;4934514;29;20059;-61
2022/07/13 01:51:00;;;;;;;5.13;1.30;;;;;;;25.94;45.84;101403.34;4936083;29;20051;-62
2022/07/13 01:53:45;;;;;;;3.20;1.25;;;;;;;25.98;46.17;101416.06;4935205;29;20050;-61
2022/07/13 01:56:32;;;;;;;1.70;0.80;;;;;;;26.08;46.31;101414.44;4935952;29;20522;-62
2022/07/13 01:59:17;;;;;;;1.20;0.85;;;;;;;26.16;46.10;101415.22;4935874;29;20059;-61
2022/07/13 02:02:01;;;;;;;4.75;1.17;;;;;;;26.13;45.87;101410.44;4935960;29;20055;-61
2022/07/13 02:04:46;;;;;;;1.83;1.05;;;;;;;26.06;45.76;101416.84;4935991;29;20514;-61
2022/07/13 02:07:32;;;;;;;5.53;1.00;;;;;;;25.98;46.44;101415.28;4928957;29;20047;-60
2022/07/13 02:10:17;;;;;;;1.63;0.90;;;;;;;25.96;46.33;101412.88;4935934;29;20058;-61
2022/07/13 02:13:08;;;;;;;2.45;0.95;;;;;;;25.95;46.08;101414.09;4936349;29;20050;-63
2022/07/13 02:15:54;;;;;;;3.72;0.98;;;;;;;25.91;46.25;101404.94;4935666;29;20059;-61
2022/07/13 02:18:38;;;;;;;1.85;0.90;;;;;;;25.81;46.03;101408.56;4935173;29;20050;-62
2022/07/13 02:21:24;;;;;;;4.20;1.05;;;;;;;25.74;46.30;101410.59;4935438;29;20058;-60
2022/07/13 02:24:08;;;;;;;2.47;1.00;;;;;;;25.74;46.70;101410.59;4935667;29;20050;-60
2022/07/13 02:26:53;;;;;;;5.40;2.00;;;;;;;25.84;46.26;101404.97;4935834;29;20054;-60
2022/07/13 02:29:38;;;;;;;1.98;0.80;;;;;;;25.84;46.47;101416.13;4935108;29;20050;-61
2022/07/13 02:32:23;;;;;;;3.35;1.30;;;;;;;25.94;46.17;101415.31;4934868;29;20058;-61
2022/07/13 02:35:10;;;;;;;4.75;1.40;;;;;;;25.42;47.74;101419.75;4934363;29;20050;-61
2022/07/13 02:37:55;;;;;;;3.22;1.50;;;;;;;25.37;48.33;101417.38;4934716;29;20407;-65
2022/07/13 02:40:40;;;;;;;3.72;0.85;;;;;;;25.34;48.41;101414.59;4935366;29;20416;-62
2022/07/13 02:43:25;;;;;;;4.25;1.02;;;;;;;25.44;48.17;101417.38;4934588;29;20195;-62
2022/07/13 02:46:10;;;;;;;2.30;1.58;;;;;;;25.11;48.51;101413.00;4935083;29;20518;-61
2022/07/13 02:48:55;;;;;;;2.47;1.20;;;;;;;25.28;48.74;101416.19;4935019;29;20047;-59
2022/07/13 02:51:40;;;;;;;3.58;1.30;;;;;;;25.43;48.37;101418.56;4934508;29;20053;-62
2022/07/13 02:54:28;;;;;;;8.48;2.42;;;;;;;25.12;48.59;101420.16;4934368;29;20055;-62
2022/07/13 02:57:13;;;;;;;65.43;13.73;;;;;;;25.06;48.45;101410.63;4934638;29;20078;-61
2022/07/13 02:59:59;;;;;;;116.03;25.88;;;;;;;24.88;49.33;101418.16;4934298;29;20044;-62
2022/07/13 03:02:44;;;;;;;48.42;10.25;;;;;;;24.79;49.47;101423.25;4934052;29;20047;-62
2022/07/13 03:05:32;;;;;;;9.98;3.33;;;;;;;25.05;49.21;101420.16;4934722;29;20404;-62
2022/07/13 03:08:18;;;;;;;8.82;3.25;;;;;;;25.18;49.24;101415.00;4934697;29;20046;-62
2022/07/13 03:11:04;;;;;;;8.13;2.22;;;;;;;25.24;48.48;101424.53;4934594;29;20051;-61
2022/07/13 03:13:49;;;;;;;5.18;1.83;;;;;;;25.06;48.78;101416.19;4915506;29;20055;-63
2022/07/13 03:16:34;;;;;;;5.30;1.58;;;;;;;25.09;49.23;101422.97;4921348;29;20136;-61
2022/07/13 03:19:21;;;;;;;7.03;1.42;;;;;;;25.25;49.00;101422.53;4933964;29;20526;-62
2022/07/13 03:22:07;;;;;;;8.98;2.22;;;;;;;25.42;48.37;101421.75;4932965;29;20106;-64
2022/07/13 03:24:54;;;;;;;4.60;1.55;;;;;;;25.51;48.18;101431.28;4938855;29;20404;-63
2022/07/13 03:27:38;;;;;;;5.97;1.45;;;;;;;25.62;47.95;101433.28;4934465;29;20407;-62
2022/07/13 03:30:24;;;;;;;4.03;1.63;;;;;;;25.47;47.85;101441.63;4934208;29;20522;-62
2022/07/13 03:33:09;;;;;;;4.53;2.28;;;;;;;25.58;47.98;101446.44;4933457;29;20059;-62
2022/07/13 03:35:55;;;;;;;5.78;1.67;;;;;;;25.88;46.79;101444.78;4934119;29;20055;-62
2022/07/13 03:38:40;;;;;;;2.85;1.35;;;;;;;26.06;46.54;101441.94;4933041;29;20051;-63
2022/07/13 03:41:25;;;;;;;2.75;1.40;;;;;;;26.08;46.11;101453.47;4933519;29;20054;-63
2022/07/13 03:44:12;;;;;;;2.72;1.02;;;;;;;26.10;46.54;101450.28;4933195;29;20059;-62
2022/07/13 03:46:58;;;;;;;2.83;1.15;;;;;;;25.93;46.26;101449.94;4934329;29;20043;-62
2022/07/13 03:49:44;;;;;;;2.30;1.30;;;;;;;25.97;46.69;101452.72;4933588;29;20051;-62
2022/07/13 03:52:29;;;;;;;3.30;1.73;;;;;;;25.84;46.80;101449.56;4931470;29;20042;-63
2022/07/13 03:55:14;;;;;;;2.40;1.20;;;;;;;25.78;47.27;101462.31;4933275;29;20058;-62
2022/07/13 03:58:00;;;;;;;1.92;1.08;;;;;;;26.06;46.55;101461.44;4933790;29;20055;-63
2022/07/13 04:00:46;;;;;;;3.30;1.77;;;;;;;25.71;47.45;101461.53;4927296;29;20054;-62
2022/07/13 04:03:31;;;;;;;3.70;1.90;;;;;;;25.57;47.86;101470.69;4926889;29;20120;-63
2022/07/13 04:06:16;;;;;;;7.95;2.03;;;;;;;25.23;48.67;101470.28;4933539;29;20050;-63
2022/07/13 04:09:02;;;;;;;3.95;2.22;;;;;;;24.82;50.07;101471.78;4934075;29;20059;-62
2022/07/13 04:11:48;;;;;;;2.72;1.23;;;;;;;25.14;49.64;101479.00;4935430;29;20054;-62
2022/07/13 04:14:34;;;;;;;3.58;1.95;;;;;;;25.38;48.39;101471.88;4938815;23;20035;-84
2022/07/13 04:17:19;;;;;;;4.07;2.13;;;;;;;25.01;49.53;101477.81;4939285;29;20079;-84
2022/07/13 04:20:06;;;;;;;8.73;2.10;;;;;;;24.80;50.30;101480.50;4941038;28;20578;-83
2022/07/13 04:22:51;;;;;;;2.88;1.30;;;;;;;25.27;49.63;101485.00;4939041;29;20437;-83
2022/07/13 04:25:37;;;;;;;6.68;2.42;;;;;;;25.46;48.62;101487.38;4931092;29;20054;-83
2022/07/13 04:28:23;;;;;;;8.30;2.13;;;;;;;25.41;48.91;101496.13;4932317;29;20055;-83
2022/07/13 04:31:09;;;;;;;4.30;2.35;;;;;;;25.18;49.51;101501.31;4950975;29;20116;-83
2022/07/13 04:33:57;;;;;;;7.90;2.03;;;;;;;25.17;49.86;101502.47;4944665;29;20055;-83
2022/07/13 04:36:44;;;;;;;3.72;1.83;;;;;;;24.96;50.59;101499.66;4926668;29;20050;-83
2022/07/13 04:39:29;;;;;;;4.00;2.08;;;;;;;24.98;50.85;101500.06;4930633;29;20047;-82
2022/07/13 04:42:14;;;;;;;2.95;1.50;;;;;;;25.08;50.39;101499.28;4931817;29;20060;-82
2022/07/13 04:44:59;;;;;;;7.88;1.95;;;;;;;25.23;50.13;101508.47;4927811;29;20067;-83
2022/07/13 04:47:44;;;;;;;6.78;2.67;;;;;;;25.11;50.24;101504.06;4933343;29;20047;-83
2022/07/13 04:50:29;;;;;;;6.60;1.98;;;;;;;25.19;50.44;101511.25;4943787;29;20046;-81
2022/07/13 04:53:15;;;;;;;6.80;2.25;;;;;;;25.02;50.72;101510.03;4941405;29;20408;-80
2022/07/13 04:56:01;;;;;;;8.18;2.08;;;;;;;25.41;49.82;101518.41;4939943;29;20508;-82
2022/07/13 04:58:45;;;;;;;3.03;2.00;;;;;;;25.72;49.29;101521.63;4928126;29;20043;-81
2022/07/13 05:01:30;;;;;;;5.88;3.03;;;;;;;25.13;50.82;101537.88;4927999;29;20282;-80
2022/07/13 05:04:18;;;;;;;6.60;2.47;;;;;;;24.54;52.81;101528.09;4940487;28;20062;-81
2022/07/13 05:07:03;;;;;;;5.82;2.00;;;;;;;25.28;50.85;101531.16;4939158;29;20051;-80
2022/07/13 05:09:50;;;;;;;5.40;1.92;;;;;;;25.66;49.97;101526.81;4940145;29;20038;-81
2022/07/13 05:12:39;;;;;;;6.80;3.33;;;;;;;25.86;49.73;101535.53;4943073;29;20050;-82
2022/07/13 05:15:24;;;;;;;4.65;1.85;;;;;;;25.92;49.42;101543.13;4928122;29;20059;-81
2022/07/13 05:18:10;;;;;;;14.57;2.25;;;;;;;25.89;49.73;101541.13;4949109;28;20128;-81
2022/07/13 05:20:57;;;;;;;13.68;2.42;;;;;;;25.88;49.61;101541.53;4948678;28;20540;-81
2022/07/13 05:23:41;;;;;;;9.07;1.80;;;;;;;26.02;49.36;101538.72;4933347;29;20067;-81
2022/07/13 05:26:27;;;;;;;16.80;4.28;;;;;;;26.07;49.11;101549.47;4930357;29;20043;-81
2022/07/13 05:29:13;;;;;;;25.20;6.32;;;;;;;26.00;49.23;101552.28;4930350;29;20058;-80
2022/07/13 05:31:59;;;;;;;25.65;5.55;;;;;;;26.07;48.98;101557.81;4952651;28;20051;-81
2022/07/13 05:34:44;;;;;;;21.75;4.75;;;;;;;26.12;48.65;101556.63;4962654;28;20059;-80
2022/07/13 05:37:29;;;;;;;11.77;3.13;;;;;;;26.16;48.25;101549.84;4955140;28;20050;-81
2022/07/13 05:40:14;;;;;;;7.13;2.40;;;;;;;26.14;48.25;101545.88;4930152;29;20052;-81
2022/07/13 05:42:58;;;;;;;20.58;2.78;;;;;;;26.14;48.29;101555.03;4946775;29;20051;-81
2022/07/13 05:45:43;;;;;;;17.02;2.13;;;;;;;26.22;47.85;101556.63;4930286;29;20437;-82
2022/07/13 05:48:28;;;;;;;18.10;2.75;;;;;;;26.13;47.13;101549.84;4944828;29;20052;-81
2022/07/13 05:51:13;;;;;;;3.97;1.30;;;;;;;25.90;47.72;101548.31;4948613;29;20121;-83
2022/07/13 05:53:58;;;;;;;6.70;1.25;;;;;;;25.93;47.31;101550.28;4945857;29;20047;-82
2022/07/13 05:56:44;;;;;;;5.85;1.17;;;;;;;25.69;47.42;101551.09;4930438;29;20051;-83
2022/07/13 05:59:29;;;;;;;5.60;1.20;;;;;;;25.78;46.42;101561.84;4947173;29;20051;-84
2022/07/13 06:02:14;;;;;;;4.32;1.20;;;;;;;25.39;47.45;101568.16;4943005;28;20055;-84
2022/07/13 06:04:58;;;;;;;;;;;;;;;25.94;46.50;101573.38;4931615;29;20051;-76
2022/07/13 06:07:43;;;;;;;19.10;1.48;;;;;;;26.20;45.96;101570.16;4911505;29;20376;-77
2022/07/13 06:10:28;;;;;;;16.42;2.28;;;;;;;26.36;45.97;101576.13;4924966;29;20040;-76
2022/07/13 06:13:13;;;;;;;8.20;1.05;;;;;;;26.44;45.46;101578.91;4931479;29;20076;-77
2022/07/13 06:15:59;;;;;;;7.68;1.13;;;;;;;26.46;44.74;101576.50;4919366;29;20532;-77
2022/07/13 06:18:44;;;;;;;2.83;1.00;;;;;;;26.38;45.61;101584.09;4928582;29;20408;-77
2022/07/13 06:21:28;;;;;;;7.28;1.00;;;;;;;26.51;44.86;101585.28;4936458;29;20054;-77
2022/07/13 06:24:13;;;;;;;9.38;1.13;;;;;;;26.57;45.02;101580.84;4937766;28;20527;-77
2022/07/13 06:26:58;;;;;;;3.92;1.63;;;;;;;26.61;44.86;101580.84;4928468;29;20046;-77
2022/07/13 06:29:43;;;;;;;2.50;1.10;;;;;;;26.74;44.34;101595.94;4920111;29;20043;-78
2022/07/13 06:32:28;;;;;;;6.82;1.45;;;;;;;26.74;45.22;101587.56;4910069;29;20047;-77
2022/07/13 06:35:12;;;;;;;;;;;;;;;26.65;44.90;101584.41;4933980;29;20043;-77
2022/07/13 06:37:57;;;;;;;4.32;1.45;;;;;;;26.69;44.80;101586.00;4917315;29;19915;-77
2022/07/13 06:40:42;;;;;;;1.75;0.70;;;;;;;26.74;44.99;101582.00;4926474;29;20043;-78
2022/07/13 06:43:26;;;;;;;5.10;0.90;;;;;;;26.74;44.99;101591.16;4922239;29;20047;-79
2022/07/13 06:46:11;;;;;;;15.35;2.15;;;;;;;26.63;44.73;101589.59;4946721;29;20062;-79
2022/07/13 06:48:56;;;;;;;3.58;0.88;;;;;;;26.67;44.98;101587.59;4937035;29;20042;-78
2022/07/13 06:51:41;;;;;;;;;;;;;;;26.79;44.62;101589.94;4938349;29;20058;-78
2022/07/13 06:54:25;;;;;;;12.52;1.10;;;;;;;26.91;43.98;101586.75;4925432;29;19918;-78
2022/07/13 06:57:12;;;;;;;;;;;;;;;27.06;43.43;101593.84;4930510;29;20501;-77
2022/07/13 06:59:57;;;;;;;3.00;0.70;;;;;;;27.04;43.82;101592.66;4933410;29;19919;-77
2022/07/13 07:02:41;;;;;;;2.80;0.57;;;;;;;27.08;43.88;101583.03;4919563;29;20054;-77
2022/07/13 07:05:26;;;;;;;4.22;1.20;;;;;;;27.09;43.85;101590.22;4917965;29;20055;-77
2022/07/13 07:08:11;;;;;;;2.97;0.70;;;;;;;27.11;43.98;101571.06;4930278;29;20058;-78
2022/07/13 07:10:55;;;;;;;;;;;;;;;26.97;44.35;101582.31;4933789;28;20043;-77
2022/07/13 07:13:40;;;;;;;0.75;0.50;;;;;;;27.13;43.97;101582.63;4920936;29;19934;-78
2022/07/13 07:16:24;;;;;;;2.83;0.80;;;;;;;27.29;43.13;101578.53;4917357;29;20050;-77
2022/07/13 07:19:09;;;;;;;;;;;;;;;27.28;43.91;101574.19;4913622;29;20422;-78
2022/07/13 07:21:54;;;;;;;9.00;0.93;;;;;;;27.32;43.82;101577.75;4929888;29;19915;-78
2022/07/13 07:24:40;;;;;;;6.53;1.50;;;;;;;27.46;42.47;101578.44;4931218;29;20051;-79
2022/07/13 07:27:26;;;;;;;8.15;1.23;;;;;;;27.41;42.90;101580.88;4919858;29;20417;-79
2022/07/13 07:30:11;;;;;;;3.90;1.17;;;;;;;27.08;43.53;101577.47;4923513;29;20051;-78
2022/07/13 07:32:55;;;;;;;4.20;0.77;;;;;;;27.21;43.27;101578.59;4911351;29;20106;-78
2022/07/13 07:35:40;;;;;;;3.08;1.15;;;;;;;27.22;43.75;101574.59;4926638;29;20047;-78
2022/07/13 07:38:25;;;;;;;6.85;1.02;;;;;;;27.81;41.56;101574.59;4927449;29;20047;-77
2022/07/13 07:41:10;;;;;;;4.10;0.93;;;;;;;27.82;41.45;101576.19;4925551;29;20046;-78
2022/07/13 07:43:55;;;;;;;7.25;0.85;;;;;;;27.83;41.11;101580.59;4932021;29;20051;-78
2022/07/13 07:46:39;;;;;;;2.65;0.73;;;;;;;27.87;41.44;101584.13;4928022;29;20409;-78
2022/07/13 07:49:24;;;;;;;2.15;0.70;;;;;;;28.15;40.60;101571.09;4928465;29;20491;-78
2022/07/13 07:52:09;;;;;;;11.75;0.70;;;;;;;28.09;41.17;101574.31;4931983;29;20070;-78
2022/07/13 07:54:53;;;;;;;3.83;0.93;;;;;;;28.08;41.29;101575.56;4949121;28;20050;-79
2022/07/13 07:57:49;;;;;;;8.27;1.00;;;;;;;28.23;41.28;101578.22;4926681;29;20070;-78
2022/07/13 08:00:34;;;;;;;5.65;1.25;;;;;;;28.39;40.97;101567.28;4941670;28;20043;-77
2022/07/13 08:03:19;;;;;;;7.00;1.33;;;;;;;29.14;37.81;101576.34;4946704;28;20055;-77
2022/07/13 08:06:04;;;;;;;5.10;0.75;;;;;;;29.72;37.01;101577.06;4946418;29;20046;-77
2022/07/13 08:08:49;;;;;;;4.40;1.02;;;;;;;29.69;37.26;101577.94;4931470;29;20047;-78
2022/07/13 08:11:35;;;;;;;5.00;1.48;;;;;;;29.04;38.33;101565.28;4927620;29;20051;-78
2022/07/13 08:14:21;;;;;;;12.38;2.33;;;;;;;28.91;37.78;101556.63;4949520;29;20054;-78
2022/07/13 08:17:05;;;;;;;3.00;0.98;;;;;;;28.97;38.54;101563.38;4928333;29;20048;-78
2022/07/13 08:19:50;;;;;;;6.80;2.15;;;;;;;29.10;38.15;101563.59;4941710;29;20056;-78
2022/07/13 08:22:35;;;;;;;6.05;1.10;;;;;;;28.86;38.88;101555.09;4919770;29;20043;-79
2022/07/13 08:25:20;;;;;;;13.90;1.15;;;;;;;28.72;39.38;101555.28;4935923;29;20308;-79
2022/07/13 08:28:05;;;;;;;2.92;0.73;;;;;;;28.60;38.92;101553.00;4942901;29;20051;-79
2022/07/13 08:30:50;;;;;;;4.68;0.80;;;;;;;28.44;38.92;101550.03;4931931;29;20048;-80
2022/07/13 08:39:42;;;;;;;7.95;1.30;;;;;;;28.68;38.67;101548.13;4927873;29;20039;-79
2022/07/13 08:42:27;;;;;;;11.70;1.10;;;;;;;28.49;39.03;101541.97;4942073;29;20055;-78
2022/07/13 08:45:12;;;;;;;41.15;2.88;;;;;;;28.36;39.27;101540.09;4926652;29;20046;-79
2022/07/13 08:47:58;;;;;;;4.93;1.25;;;;;;;28.40;39.26;101538.84;4919561;29;20063;-79
2022/07/13 08:50:44;;;;;;;4.60;1.23;;;;;;;28.59;38.83;101537.44;4919903;29;20063;-79
2022/07/13 08:53:29;;;;;;;20.25;1.48;;;;;;;28.27;39.35;101537.81;4933534;29;20067;-79
2022/07/13 08:56:14;;;;;;;2.10;0.90;;;;;;;28.43;38.40;101531.63;4934833;29;20050;-79
2022/07/13 08:59:00;;;;;;;2.58;1.15;;;;;;;28.74;37.25;101536.09;4934503;29;20054;-78
2022/07/13 09:01:44;;;;;;;3.42;1.15;;;;;;;28.77;38.26;101531.63;4929252;29;20055;-79
2022/07/13 09:04:30;;;;;;;3.78;0.75;;;;;;;28.82;37.73;101536.75;4920943;29;20055;-78
2022/07/13 09:07:14;;;;;;;3.20;0.75;;;;;;;28.87;37.37;101537.09;4915487;29;20528;-78
2022/07/13 09:10:04;;;;;;;6.32;0.95;;;;;;;29.11;38.03;101548.34;4915186;29;20047;-77
2022/07/13 09:12:48;;;;;;;8.73;0.95;;;;;;;29.15;37.99;101540.72;4930220;29;20055;-78
2022/07/13 09:15:33;;;;;;;4.10;0.88;;;;;;;28.89;38.36;101540.28;4949674;28;20052;-79
2022/07/13 09:18:18;;;;;;;9.65;0.85;;;;;;;28.98;38.55;101536.94;4946011;29;20551;-79
2022/07/13 09:21:03;;;;;;;11.60;1.60;;;;;;;28.75;38.59;101532.03;4946522;29;20043;-76
2022/07/13 09:23:56;;;;;;;24.27;1.48;;;;;;;28.43;39.36;101531.63;4939705;28;20063;-78
2022/07/13 09:26:43;;;;;;;5.37;1.67;;;;;;;28.59;38.79;101531.84;4926023;29;20067;-79
2022/07/13 09:29:28;;;;;;;13.60;1.17;;;;;;;28.96;38.31;101530.97;4941436;29;20051;-78
2022/07/13 09:32:14;;;;;;;5.57;1.35;;;;;;;28.76;38.60;101532.84;4938312;29;20442;-78
2022/07/13 09:35:02;;;;;;;4.75;0.90;;;;;;;28.65;38.63;101529.38;4945515;28;20059;-80
2022/07/13 09:37:48;;;;;;;6.35;1.20;;;;;;;28.52;39.44;101526.31;4930530;29;20051;-79
2022/07/13 09:40:33;;;;;;;1.42;0.93;;;;;;;28.43;39.75;101518.44;4940044;28;20055;-80
2022/07/13 09:46:21;;;;;;;4.88;0.73;;;;;;;28.82;38.54;101520.75;4940749;29;20096;-79
2022/07/13 09:49:07;;;;;;;11.95;1.17;;;;;;;28.83;38.09;101519.56;4958591;28;20449;-79
2022/07/13 09:51:56;;;;;;;5.15;0.93;;;;;;;29.10;37.13;101527.19;4934963;29;20044;-79
2022/07/13 09:54:44;;;;;;;5.40;1.00;;;;;;;29.07;37.79;101519.59;4940568;29;20051;-77
2022/07/13 09:57:29;;;;;;;4.45;0.73;;;;;;;29.23;36.94;101516.97;4926530;29;20414;-78
2022/07/13 10:00:17;;;;;;;1.60;0.60;;;;;;;29.67;36.89;101518.66;4922459;29;20075;-79
2022/07/13 10:03:02;;;;;;;5.95;2.05;;;;;;;29.64;36.64;101514.72;4935018;29;20043;-78
2022/07/13 10:05:49;;;;;;;3.20;0.70;;;;;;;29.82;36.25;101514.38;4934415;29;20046;-78
2022/07/13 10:08:35;;;;;;;2.60;0.60;;;;;;;29.84;35.93;101511.16;4919301;29;20047;-77
2022/07/13 10:11:20;;;;;;;6.03;0.65;;;;;;;29.47;36.23;101513.00;4920293;29;20055;-78
2022/07/13 10:14:06;;;;;;;3.72;1.33;;;;;;;29.11;37.87;101515.53;4919556;29;20056;-77
2022/07/13 10:16:52;;;;;;;5.13;0.77;;;;;;;29.28;36.01;101525.69;4964293;23;20051;-64
2022/07/13 10:19:57;;;;;;;3.78;0.70;;;;;;;29.84;35.59;101522.38;4925561;29;20538;-63
2022/07/13 10:22:50;;;;;;;2.53;0.80;;;;;;;29.58;36.59;101524.03;4914997;29;20054;-62
2022/07/13 10:25:44;;;;;;;2.20;0.90;;;;;;;29.61;36.45;101521.16;4908946;29;20523;-63
2022/07/13 10:28:30;;;;;;;;;;;;;;;29.50;36.90;101523.38;4916192;29;20047;-63
2022/07/13 10:31:29;;;;;;;2.72;0.80;;;;;;;29.48;36.97;101522.19;4916069;29;19923;-62
2022/07/13 10:34:14;;;;;;;1.77;0.68;;;;;;;29.36;37.29;101512.38;4915228;29;20055;-65
2022/07/13 10:37:00;;;;;;;5.32;0.80;;;;;;;29.24;37.55;101518.56;4922338;29;20047;-65
2022/07/13 10:40:11;;;;;;;7.00;1.05;;;;;;;29.39;36.69;101511.53;4904952;29;20059;-63
2022/07/13 10:43:03;;;;;;;4.53;1.10;;;;;;;29.16;37.18;101505.84;4918563;29;20043;-62
2022/07/13 10:45:51;;;;;;;5.57;1.92;;;;;;;29.16;37.16;101505.84;4912947;29;20051;-64
2022/07/13 10:48:42;;;;;;;9.75;1.17;;;;;;;29.00;37.94;101502.94;4905223;29;20039;-64
2022/07/13 10:51:27;;;;;;;8.43;1.65;;;;;;;29.30;37.36;101505.66;4913857;29;20142;-64
2022/07/13 10:54:12;;;;;;;3.85;1.42;;;;;;;29.24;37.67;101504.56;4914607;29;20056;-64
2022/07/13 10:57:14;;;;;;;4.85;1.00;;;;;;;29.46;35.95;101497.41;4920622;29;20063;-64
2022/07/13 11:00:22;;;;;;;1.50;0.77;;;;;;;29.10;37.76;101497.16;4907139;29;20039;-64
2022/07/13 11:03:23;;;;;;;2.67;1.02;;;;;;;29.07;37.77;101494.41;4912847;29;20055;-64
2022/07/13 11:06:12;;;;;;;2.83;0.80;;;;;;;28.84;37.79;101490.34;4905253;29;20055;-65
2022/07/13 11:09:21;;;;;;;3.35;0.90;;;;;;;28.80;37.23;101489.56;4915681;29;20051;-64
2022/07/13 11:12:24;;;;;;;2.88;0.93;;;;;;;28.81;38.09;101490.38;4914131;29;20059;-64
2022/07/13 11:15:16;;;;;;;2.47;0.77;;;;;;;28.84;38.16;101481.16;4907311;29;20059;-63
2022/07/13 11:18:34;;;;;;;1.65;0.73;;;;;;;29.52;35.96;101489.28;4939667;28;20042;-62
2022/07/13 11:21:22;;;;;;;0.70;0.60;;;;;;;29.37;36.90;101480.34;4930296;29;20054;-63
2022/07/13 11:27:28;;;;;;;1.45;1.00;;;;;;;29.10;36.15;101469.16;4916304;29;20113;-64
2022/07/13 11:30:14;;;;;;;1.88;1.00;;;;;;;29.06;37.38;101468.38;4914778;29;20067;-63
2022/07/13 11:33:00;;;;;;;1.27;0.68;;;;;;;29.28;36.42;101457.66;4914507;29;20066;-65
2022/07/13 11:35:46;;;;;;;1.95;0.85;;;;;;;29.71;34.91;101452.13;4909523;29;20063;-64
2022/07/13 11:38:35;;;;;;;4.05;0.90;;;;;;;29.84;34.53;101450.25;4918554;29;20403;-63
2022/07/13 11:41:21;;;;;;;1.02;0.75;;;;;;;29.58;36.21;101451.16;4925561;29;20043;-65
2022/07/13 11:44:11;;;;;;;2.33;0.80;;;;;;;29.51;36.70;101452.06;4926259;29;20051;-63
2022/07/13 11:46:58;;;;;;;4.35;0.93;;;;;;;29.48;35.92;101444.50;4930763;29;20054;-63
2022/07/13 11:49:46;;;;;;;2.80;0.90;;;;;;;29.79;35.87;101441.56;4896295;29;20043;-65
2022/07/13 11:52:31;;;;;;;3.97;0.90;;;;;;;30.20;35.09;101427.94;4905099;29;20047;-65
2022/07/13 11:55:16;;;;;;;5.47;1.50;;;;;;;30.48;34.10;101435.75;4914122;29;20043;-65
2022/07/13 11:58:01;;;;;;;3.72;0.82;;;;;;;30.45;34.84;101433.78;4914754;29;20047;-65
2022/07/13 12:00:46;;;;;;;5.18;1.30;;;;;;;29.74;36.07;101426.81;4925908;29;20046;-65
2022/07/13 12:03:33;;;;;;;8.68;1.00;;;;;;;29.85;35.98;101425.81;4922571;29;20051;-65
2022/07/13 12:06:19;;;;;;;5.75;0.93;;;;;;;30.14;35.55;101418.44;4922685;29;20051;-64
2022/07/13 12:09:04;;;;;;;3.20;0.75;;;;;;;30.25;35.34;101421.81;4930611;29;20046;-65
2022/07/13 12:11:49;;;;;;;1.77;0.80;;;;;;;30.15;35.31;101409.59;4933582;29;20403;-66
2022/07/13 12:14:34;;;;;;;8.48;0.95;;;;;;;30.64;34.89;101411.75;4933868;29;20047;-65
2022/07/13 12:17:21;;;;;;;2.28;0.70;;;;;;;30.41;35.31;101405.03;4933649;29;20051;-65
2022/07/13 12:20:14;;;;;;;6.05;1.00;;;;;;;30.19;35.64;101398.28;4910353;29;20067;-66
2022/07/13 12:22:59;;;;;;;1.10;0.70;;;;;;;29.91;35.75;101399.69;4917263;29;20047;-64
2022/07/13 12:25:44;;;;;;;2.17;0.80;;;;;;;29.45;36.96;101400.53;4921092;29;20748;-65
2022/07/13 12:28:29;;;;;;;1.33;0.60;;;;;;;29.26;37.67;101392.81;4908206;29;20126;-63
2022/07/13 12:31:19;;;;;;;6.32;0.90;;;;;;;29.28;37.59;101393.19;4913656;29;20055;-64
2022/07/13 12:34:06;;;;;;;4.07;1.10;;;;;;;28.98;37.91;101394.09;4912950;29;20079;-63
2022/07/13 12:36:52;;;;;;;2.80;0.88;;;;;;;28.84;38.28;101383.94;4917086;29;20051;-64
2022/07/13 12:39:40;;;;;;;9.75;1.60;;;;;;;28.97;38.64;101384.13;4927044;29;20062;-64
2022/07/13 12:42:25;;;;;;;48.17;7.95;;;;;;;28.78;39.68;101382.81;4913486;29;20522;-61
2022/07/13 12:45:17;;;;;;;62.65;10.77;;;;;;;28.74;39.58;101382.09;4916677;29;20420;-65
2022/07/13 12:48:12;;;;;;;45.90;8.88;;;;;;;28.87;39.57;101373.88;4911053;29;20036;-64
2022/07/13 12:51:07;;;;;;;22.27;5.57;;;;;;;28.96;39.21;101378.94;4902235;29;20040;-64
2022/07/13 12:53:56;;;;;;;16.92;3.63;;;;;;;28.69;40.54;101371.34;4898297;29;20062;-64
2022/07/13 12:56:48;;;;;;;4.40;1.67;;;;;;;28.62;39.87;101365.06;4911660;29;20500;-64
2022/07/13 12:59:34;;;;;;;4.30;1.77;;;;;;;28.89;39.19;101372.25;4916202;29;20419;-64
2022/07/13 13:02:18;;;;;;;5.28;1.77;;;;;;;29.11;39.16;101367.06;4917590;29;20051;-64
2022/07/13 13:05:11;;;;;;;3.80;1.33;;;;;;;28.78;39.75;101366.03;4913123;29;20344;-63
2022/07/13 13:07:56;;;;;;;2.72;1.20;;;;;;;28.74;39.25;101361.72;4915533;29;20066;-64